Time;durP1;ratioP1;P1;durP2;ratioP2;P2;SDS_P1;SDS_P2;PMS_P1;PMS_P2;Temp;Humidity;BMP_temperature;BMP_pressure;BME280_temperature;BME280_humidity;BME280_pressure;Samples;Min_cycle;Max_cycle;Signal;HPM_P1;HPM_P2
2022/09/05 00:00:05;;;;;;;;;;;28.70;99.90;;;;;;4953544;29;19906;-66
2022/09/05 00:02:32;;;;;;;;;;;28.80;99.90;;;;;;4953427;29;20005;-66
2022/09/05 00:05:08;;;;;;;;;;;28.80;99.90;;;;;;4953332;28;19918;-66
2022/09/05 00:07:34;;;;;;;;;;;28.80;99.90;;;;;;4995572;28;20389;-66
2022/09/05 00:10:10;;;;;;;;;;;28.90;99.90;;;;;;4994204;28;20040;-66
2022/09/05 00:12:37;;;;;;;;;;;28.90;99.90;;;;;;4994171;28;19913;-66
2022/09/05 00:15:12;;;;;;;;;;;28.80;99.90;;;;;;4994111;28;20279;-66
2022/09/05 00:17:51;;;;;;;;;;;28.80;99.90;;;;;;4994065;28;19918;-66
2022/09/05 00:20:17;;;;;;;;;;;28.80;99.90;;;;;;5013403;28;19909;-66
2022/09/05 00:22:51;;;;;;;;;;;28.80;99.90;;;;;;5011135;28;19951;-66
2022/09/05 00:25:29;;;;;;;;;;;28.80;99.90;;;;;;4996212;28;20282;-67
2022/09/05 00:28:15;;;;;;;;;;;28.70;99.90;;;;;;4996177;28;20066;-67
2022/09/05 00:30:56;;;;;;;;;;;28.80;99.90;;;;;;5014318;28;19928;-67
2022/09/05 00:33:34;;;;;;;;;;;28.80;99.90;;;;;;5016219;28;19920;-66
2022/09/05 00:36:00;;;;;;;;;;;28.90;99.90;;;;;;5016312;28;19928;-67
2022/09/05 00:38:27;;;;;;;;;;;28.90;99.90;;;;;;5016067;28;19909;-66
2022/09/05 00:40:58;;;;;;;;;;;28.90;99.90;;;;;;5016173;28;19963;-67
2022/09/05 00:43:27;;;;;;;;;;;28.90;99.90;;;;;;5016066;28;20377;-66
2022/09/05 00:45:55;;;;;;;;;;;29.00;99.90;;;;;;5017118;28;19955;-67
2022/09/05 00:48:36;;;;;;;;;;;28.90;99.90;;;;;;5017411;28;19936;-66
2022/09/05 00:51:22;;;;;;;;;;;29.00;99.90;;;;;;5017123;28;19914;-66
2022/09/05 00:53:50;;;;;;;;;;;28.90;99.90;;;;;;4918330;29;20025;-67
2022/09/05 00:56:36;;;;;;;;;;;28.90;99.90;;;;;;4918380;29;19908;-66
2022/09/05 00:59:22;;;;;;;;;;;29.00;99.90;;;;;;4919023;29;20303;-67
2022/09/05 01:02:03;;;;;;;;;;;29.00;99.90;;;;;;4918691;28;19950;-66
2022/09/05 01:04:40;;;;;;;;;;;29.00;99.90;;;;;;4918261;29;19975;-67
2022/09/05 01:07:12;;;;;;;;;;;29.00;99.90;;;;;;4918450;29;19907;-66
2022/09/05 01:10:02;;;;;;;;;;;29.10;99.90;;;;;;4918341;29;19915;-66
2022/09/05 01:12:48;;;;;;;;;;;29.10;99.90;;;;;;4918346;29;19919;-67
2022/09/05 01:15:34;;;;;;;;;;;29.30;99.90;;;;;;4904282;29;19915;-66
2022/09/05 01:18:02;;;;;;;;;;;29.30;99.90;;;;;;4880675;29;19996;-67
2022/09/05 01:20:28;;;;;;;;;;;29.30;99.90;;;;;;4880515;29;19912;-66
2022/09/05 01:23:05;;;;;;;;;;;29.40;99.90;;;;;;4880623;29;19915;-66
2022/09/05 01:25:51;;;;;;;;;;;29.40;99.90;;;;;;4933919;29;19907;-66
2022/09/05 01:28:18;;;;;;;;;;;29.40;99.90;;;;;;4861962;29;19908;-67
2022/09/05 01:30:47;;;;;;;;;;;29.40;99.90;;;;;;4861897;29;19964;-66
2022/09/05 01:33:14;;;;;;;;;;;29.40;99.90;;;;;;4861787;29;20449;-66
2022/09/05 01:35:52;;;;;;;;;;;29.50;99.90;;;;;;4861727;29;20306;-66
2022/09/05 01:38:20;;;;;;;;;;;29.60;99.90;;;;;;4861619;29;19919;-66
2022/09/05 01:40:54;;;;;;;;;;;29.70;99.90;;;;;;4861707;29;19908;-67
2022/09/05 01:43:34;;;;;;;;;;;29.80;99.90;;;;;;4861116;29;20285;-66
2022/09/05 01:46:20;;;;;;;;;;;29.70;99.90;;;;;;4861691;29;20415;-67
2022/09/05 01:48:53;;;;;;;;;;;29.70;99.90;;;;;;4861778;29;20403;-67
2022/09/05 01:51:39;;;;;;;;;;;29.80;99.90;;;;;;4861412;29;19912;-66
2022/09/05 01:54:25;;;;;;;;;;;29.90;99.90;;;;;;4861317;29;20282;-66
2022/09/05 01:56:58;;;;;;;;;;;30.00;99.90;;;;;;4788360;30;20288;-66
2022/09/05 01:59:38;;;;;;;;;;;30.10;99.90;;;;;;4788406;30;20001;-67
2022/09/05 02:02:20;;;;;;;;;;;30.10;99.90;;;;;;4788457;30;19909;-66
2022/09/05 02:04:46;;;;;;;;;;;30.10;99.90;;;;;;4802143;29;19912;-66
2022/09/05 02:07:28;;;;;;;;;;;30.20;99.90;;;;;;4849696;29;19914;-66
2022/09/05 02:10:04;;;;;;;;;;;30.20;99.90;;;;;;4879606;29;20010;-67
2022/09/05 02:12:35;;;;;;;;;;;30.40;99.90;;;;;;4879770;29;20036;-67
2022/09/05 02:15:05;;;;;;;;;;;30.50;99.90;;;;;;4879508;29;19915;-67
2022/09/05 02:17:40;;;;;;;;;;;30.60;99.90;;;;;;4879578;29;19908;-67
2022/09/05 02:20:06;;;;;;;;;;;30.70;99.90;;;;;;4879606;29;19911;-67
2022/09/05 02:22:47;;;;;;;;;;;30.70;99.90;;;;;;4879422;29;19914;-67
2022/09/05 02:25:17;;;;;;;;;;;30.70;99.90;;;;;;4879517;29;19919;-67
2022/09/05 02:27:49;;;;;;;;;;;30.80;99.90;;;;;;4879320;29;20409;-66
2022/09/05 02:30:21;;;;;;;;;;;30.80;99.90;;;;;;4879486;29;19911;-67
2022/09/05 02:32:48;;;;;;;;;;;30.70;99.90;;;;;;4882261;28;19939;-67
2022/09/05 02:35:34;;;;;;;;;;;30.80;99.90;;;;;;4976478;28;19913;-66
2022/09/05 02:38:05;;;;;;;;;;;30.80;99.90;;;;;;4976452;28;19910;-67
2022/09/05 02:40:45;;;;;;;;;;;30.90;99.90;;;;;;4976202;28;19953;-67
2022/09/05 02:43:18;;;;;;;;;;;31.00;99.90;;;;;;4976176;28;20394;-67
2022/09/05 02:45:53;;;;;;;;;;;31.10;99.90;;;;;;4976023;28;19906;-67
2022/09/05 02:48:24;;;;;;;;;;;31.10;99.90;;;;;;4975978;28;20359;-66
2022/09/05 02:50:52;;;;;;;;;;;31.00;99.90;;;;;;4975999;28;19906;-66
2022/09/05 02:53:20;;;;;;;;;;;31.10;99.90;;;;;;4975258;28;20009;-66
2022/09/05 02:55:46;;;;;;;;;;;31.40;99.90;;;;;;4975794;28;19906;-66
2022/09/05 02:58:24;;;;;;;;;;;31.50;99.90;;;;;;4975762;28;19906;-66
2022/09/05 03:01:10;;;;;;;;;;;31.40;99.90;;;;;;4975837;28;19906;-67
2022/09/05 03:03:39;;;;;;;;;;;31.40;99.90;;;;;;4897144;29;19909;-66
2022/09/05 03:06:15;;;;;;;;;;;31.30;99.90;;;;;;4897402;29;19907;-66
2022/09/05 03:08:41;;;;;;;;;;;31.40;99.90;;;;;;4897290;29;19907;-67
2022/09/05 03:11:28;;;;;;;;;;;31.40;99.90;;;;;;4897189;29;20002;-66
2022/09/05 03:14:03;;;;;;;;;;;31.60;99.90;;;;;;4897074;29;19919;-66
2022/09/05 03:16:48;;;;;;;;;;;31.50;99.90;;;;;;4897146;29;19913;-66
2022/09/05 03:19:14;;;;;;;;;;;31.60;99.90;;;;;;4896913;29;19908;-67
2022/09/05 03:21:43;;;;;;;;;;;31.60;99.90;;;;;;4897167;29;19913;-66
2022/09/05 03:24:29;;;;;;;;;;;31.60;99.90;;;;;;4897024;29;19911;-67
2022/09/05 03:27:09;;;;;;;;;;;31.70;99.90;;;;;;4896976;29;19907;-71
2022/09/05 03:29:36;;;;;;;;;;;31.60;99.90;;;;;;4896968;29;19998;-70
2022/09/05 03:32:11;;;;;;;;;;;31.50;99.90;;;;;;4897039;29;19911;-66
2022/09/05 03:34:57;;;;;;;;;;;31.50;99.90;;;;;;4961019;28;19909;-67
2022/09/05 03:37:23;;;;;;;;;;;31.40;99.90;;;;;;5007407;28;19915;-67
2022/09/05 03:40:08;;;;;;;;;;;31.40;99.90;;;;;;5013540;28;19920;-66
2022/09/05 03:42:38;;;;;;;;;;;31.40;99.90;;;;;;5012126;28;20322;-67
2022/09/05 03:45:04;;;;;;;;;;;31.50;99.90;;;;;;5010842;28;19905;-67
2022/09/05 03:47:32;;;;;;;;;;;31.50;99.90;;;;;;5013405;28;20377;-67
2022/09/05 03:49:58;;;;;;;;;;;31.50;99.90;;;;;;5013515;28;19917;-67
2022/09/05 03:52:35;;;;;;;;;;;31.60;99.90;;;;;;5010557;28;20390;-67
2022/09/05 03:55:01;;;;;;;;;;;31.60;99.90;;;;;;5013022;28;20378;-66
2022/09/05 03:57:27;;;;;;;;;;;31.50;99.90;;;;;;5013358;28;19992;-66
2022/09/05 04:02:57;;;;;;;;;;;31.40;99.90;;;;;;5013794;28;19905;-66
2022/09/05 04:05:27;;;;;;;;;;;31.50;99.90;;;;;;5013335;28;19905;-66
2022/09/05 04:07:57;;;;;;;;;;;31.50;99.90;;;;;;5013793;28;20504;-66
2022/09/05 04:10:34;;;;;;;;;;;31.50;99.90;;;;;;5013676;28;19905;-68
2022/09/05 04:13:03;;;;;;;;;;;31.40;99.90;;;;;;5013284;28;19909;-68
2022/09/05 04:15:33;;;;;;;;;;;31.40;99.90;;;;;;5005210;28;19905;-67
2022/09/05 04:18:02;;;;;;;;;;;31.40;99.90;;;;;;5001524;28;19910;-67
2022/09/05 04:20:36;;;;;;;;;;;31.40;99.90;;;;;;5010893;28;19909;-66
2022/09/05 04:23:04;;;;;;;;;;;31.40;99.90;;;;;;5012730;28;20380;-67
2022/09/05 04:25:44;;;;;;;;;;;31.40;99.90;;;;;;5012714;28;20290;-66
2022/09/05 04:28:19;;;;;;;;;;;31.50;99.90;;;;;;5012848;28;20001;-71
2022/09/05 04:30:47;;;;;;;;;;;31.50;99.90;;;;;;5010793;28;19932;-69
2022/09/05 04:33:27;;;;;;;;;;;31.60;99.90;;;;;;5010340;28;19909;-65
2022/09/05 04:35:54;;;;;;;;;;;31.60;99.90;;;;;;5010552;28;20131;-66
2022/09/05 04:38:35;;;;;;;;;;;31.60;99.90;;;;;;5012639;28;19906;-65
2022/09/05 04:41:03;;;;;;;;;;;31.60;99.90;;;;;;5011584;28;19921;-66
2022/09/05 04:43:34;;;;;;;;;;;31.70;99.90;;;;;;5013473;28;20453;-66
2022/09/05 04:46:14;;;;;;;;;;;31.70;99.90;;;;;;5011868;28;19956;-68
2022/09/05 04:48:45;;;;;;;;;;;31.80;99.90;;;;;;5012619;28;19967;-68
2022/09/05 04:51:32;;;;;;;;;;;31.80;99.90;;;;;;5013425;28;20363;-70
2022/09/05 04:54:01;;;;;;;;;;;31.80;99.90;;;;;;4924124;29;19919;-70
2022/09/05 04:56:30;;;;;;;;;;;31.90;99.90;;;;;;4923235;29;19911;-70
2022/09/05 04:59:01;;;;;;;;;;;31.90;99.90;;;;;;4922540;29;19942;-70
2022/09/05 05:01:33;;;;;;;;;;;31.80;99.90;;;;;;4924089;29;19906;-69
2022/09/05 05:04:14;;;;;;;;;;;31.80;99.90;;;;;;4933804;29;19911;-67
2022/09/05 05:06:46;;;;;;;;;;;31.80;99.90;;;;;;4933574;29;19961;-66
2022/09/05 05:09:25;;;;;;;;;;;31.80;99.90;;;;;;4933770;29;19906;-71
2022/09/05 05:11:51;;;;;;;;;;;31.70;99.90;;;;;;4933612;29;20030;-71
2022/09/05 05:14:17;;;;;;;;;;;31.60;99.90;;;;;;4924843;29;19930;-69
2022/09/05 05:16:47;;;;;;;;;;;31.50;99.90;;;;;;4923135;29;19907;-69
2022/09/05 05:19:13;;;;;;;;;;;31.10;99.90;;;;;;4926438;29;20058;-68
2022/09/05 05:21:44;;;;;;;;;;;30.80;99.90;;;;;;4927827;29;19937;-69
2022/09/05 05:24:13;;;;;;;;;;;30.60;99.90;;;;;;4952666;28;19912;-67
2022/09/05 05:26:47;;;;;;;;;;;30.30;99.90;;;;;;5015833;28;19955;-65
2022/09/05 05:29:13;;;;;;;;;;;29.90;99.90;;;;;;5016002;28;19905;-65
2022/09/05 05:31:45;;;;;;;;;;;29.60;99.90;;;;;;5015915;28;20343;-65
2022/09/05 05:34:23;;;;;;;;;;;29.40;99.90;;;;;;5015776;28;20004;-66
2022/09/05 05:36:53;;;;;;;;;;;29.00;99.90;;;;;;5013891;28;19905;-65
2022/09/05 05:39:27;;;;;;;;;;;28.70;99.90;;;;;;5015307;28;19917;-71
2022/09/05 05:41:55;;;;;;;;;;;28.60;99.90;;;;;;5013751;28;20008;-66
2022/09/05 05:44:26;;;;;;;;;;;28.60;99.90;;;;;;5015520;28;19937;-66
2022/09/05 05:46:58;;;;;;;;;;;28.70;99.90;;;;;;5015584;28;19960;-66
2022/09/05 05:49:26;;;;;;;;;;;28.70;99.90;;;;;;5015006;28;19905;-65
2022/09/05 05:52:04;;;;;;;;;;;28.70;99.90;;;;;;5015324;28;19905;-64
2022/09/05 05:54:50;;;;;;;;;;;28.90;99.90;;;;;;5013240;28;19909;-65
2022/09/05 05:57:26;;;;;;;;;;;29.10;99.90;;;;;;5011584;28;20262;-65
2022/09/05 05:59:57;;;;;;;;;;;29.40;99.90;;;;;;5013180;28;19912;-67
2022/09/05 06:02:38;;;;;;;;;;;29.50;99.90;;;;;;5015448;28;20351;-66
2022/09/05 06:05:19;;;;;;;;;;;29.60;99.90;;;;;;5014289;28;19914;-65
2022/09/05 06:07:46;;;;;;;;;;;29.70;99.90;;;;;;5013702;28;19905;-66
2022/09/05 06:10:29;;;;;;;;;;;29.80;99.90;;;;;;5015277;28;19980;-67
2022/09/05 06:13:12;;;;;;;;;;;29.70;99.90;;;;;;5014999;28;19980;-65
2022/09/05 06:15:40;;;;;;;;;;;29.70;99.90;;;;;;5011183;28;20082;-65
2022/09/05 06:18:09;;;;;;;;;;;29.70;99.90;;;;;;5015095;28;19913;-65
2022/09/05 06:20:36;;;;;;;;;;;29.80;99.90;;;;;;5015096;28;19909;-64
2022/09/05 06:23:05;;;;;;;;;;;29.80;99.90;;;;;;5008928;28;20263;-65
2022/09/05 06:25:41;;;;;;;;;;;29.90;99.90;;;;;;5014796;28;19918;-67
2022/09/05 06:28:09;;;;;;;;;;;29.90;99.90;;;;;;5015005;28;19905;-66
2022/09/05 06:30:46;;;;;;;;;;;29.90;99.90;;;;;;5014447;28;19935;-66
2022/09/05 06:33:22;;;;;;;;;;;30.00;99.90;;;;;;5014658;28;19918;-67
2022/09/05 06:36:09;;;;;;;;;;;30.20;99.90;;;;;;5015043;28;19909;-67
2022/09/05 06:38:46;;;;;;;;;;;30.20;99.90;;;;;;5014644;28;19905;-68
2022/09/05 06:41:18;;;;;;;;;;;30.30;99.90;;;;;;5014744;28;20286;-65
2022/09/05 06:44:04;;;;;;;;;;;30.30;99.90;;;;;;5014553;28;19905;-67
2022/09/05 06:46:32;;;;;;;;;;;30.40;99.90;;;;;;5013769;28;19913;-66
2022/09/05 06:49:11;;;;;;;;;;;30.50;99.90;;;;;;5012048;28;19913;-68
2022/09/05 06:51:43;;;;;;;;;;;30.60;99.90;;;;;;5014416;28;19959;-66
2022/09/05 06:54:22;;;;;;;;;;;30.60;99.90;;;;;;5014149;28;19913;-65
2022/09/05 06:57:09;;;;;;;;;;;30.70;99.90;;;;;;5012886;28;19917;-65
2022/09/05 06:59:44;;;;;;;;;;;30.80;99.90;;;;;;4929586;29;20360;-65
2022/09/05 07:02:10;;;;;;;;;;;30.90;99.90;;;;;;4924968;29;19911;-67
2022/09/05 07:04:39;;;;;;;;;;;31.00;99.90;;;;;;4925756;29;19918;-67
2022/09/05 07:07:26;;;;;;;;;;;31.00;99.90;;;;;;4930582;29;20477;-69
2022/09/05 07:09:57;;;;;;;;;;;31.10;99.90;;;;;;4927274;29;19911;-69
2022/09/05 07:12:44;;;;;;;;;;;31.10;99.90;;;;;;4921872;29;19921;-66
2022/09/05 07:15:10;;;;;;;;;;;31.20;99.90;;;;;;4926915;29;19971;-66
2022/09/05 07:17:41;;;;;;;;;;;31.30;99.90;;;;;;4931513;29;19942;-66
2022/09/05 07:20:19;;;;;;;;;;;31.20;99.90;;;;;;4926830;29;19907;-66
2022/09/05 07:23:01;;;;;;;;;;;31.20;99.90;;;;;;4934758;28;19911;-67
2022/09/05 07:25:28;;;;;;;;;;;31.20;99.90;;;;;;4933849;29;19936;-65
2022/09/05 07:27:57;;;;;;;;;;;31.20;99.90;;;;;;4932494;29;19914;-66
2022/09/05 07:30:23;;;;;;;;;;;31.30;99.90;;;;;;4922499;29;19911;-69
2022/09/05 07:32:54;;;;;;;;;;;31.30;99.90;;;;;;4915760;29;20384;-69
2022/09/05 07:35:24;;;;;;;;;;;31.40;99.90;;;;;;4915758;29;19942;-69
2022/09/05 07:38:13;;;;;;;;;;;31.40;99.90;;;;;;4994234;28;19906;-69
2022/09/05 07:40:45;;;;;;;;;;;31.40;99.90;;;;;;4993987;28;20363;-68
2022/09/05 07:43:16;;;;;;;;;;;31.40;99.90;;;;;;4994637;28;19906;-69
2022/09/05 07:45:44;;;;;;;;;;;31.40;99.90;;;;;;4994443;28;19906;-69
2022/09/05 07:48:13;;;;;;;;;;;31.50;99.90;;;;;;4993714;28;19906;-69
2022/09/05 07:50:49;;;;;;;;;;;31.50;99.90;;;;;;4992693;28;19910;-69
2022/09/05 07:53:16;;;;;;;;;;;31.50;99.90;;;;;;4992591;28;20290;-68
2022/09/05 07:55:42;;;;;;;;;;;31.40;99.90;;;;;;4992665;28;19913;-69
2022/09/05 07:58:11;;;;;;;;;;;31.10;99.90;;;;;;4992669;28;19916;-69
2022/09/05 08:00:38;;;;;;;;;;;31.00;99.90;;;;;;4997021;28;19910;-68
2022/09/05 08:03:13;;;;;;;;;;;30.70;99.90;;;;;;4999511;28;19910;-69
2022/09/05 08:05:47;;;;;;;;;;;30.60;99.90;;;;;;4995872;28;19992;-70
2022/09/05 08:08:15;;;;;;;;;;;30.50;99.90;;;;;;5014132;28;19906;-69
2022/09/05 08:10:50;;;;;;;;;;;30.40;99.90;;;;;;5014263;28;19909;-70
2022/09/05 08:13:21;;;;;;;;;;;30.40;99.90;;;;;;5003566;28;19918;-69
2022/09/05 08:15:52;;;;;;;;;;;30.50;99.90;;;;;;4994371;28;20286;-69
2022/09/05 08:18:20;;;;;;;;;;;30.50;99.90;;;;;;4994371;28;19910;-69
2022/09/05 08:20:46;;;;;;;;;;;30.50;99.90;;;;;;4994251;28;19905;-69
2022/09/05 08:23:12;;;;;;;;;;;30.40;99.90;;;;;;4994200;28;19980;-69
2022/09/05 08:25:42;;;;;;;;;;;30.30;99.90;;;;;;4994103;28;19960;-68
2022/09/05 08:28:18;;;;;;;;;;;30.30;99.90;;;;;;4994110;28;19909;-69
2022/09/05 08:30:47;;;;;;;;;;;30.20;99.90;;;;;;4994022;28;19912;-69
2022/09/05 08:33:18;;;;;;;;;;;30.10;99.90;;;;;;4994020;28;19914;-69
2022/09/05 08:35:51;;;;;;;;;;;30.00;99.90;;;;;;4993460;28;20425;-69
2022/09/05 08:38:18;;;;;;;;;;;29.90;99.90;;;;;;5011017;28;20000;-72
2022/09/05 08:40:44;;;;;;;;;;;29.70;99.90;;;;;;5013612;28;19913;-72
2022/09/05 08:43:10;;;;;;;;;;;29.70;99.90;;;;;;5013780;28;20001;-72
2022/09/05 08:45:36;;;;;;;;;;;29.60;99.90;;;;;;5013804;28;19912;-70
2022/09/05 08:48:05;;;;;;;;;;;29.30;99.90;;;;;;5013717;28;19948;-68
2022/09/05 08:50:31;;;;;;;;;;;29.10;99.90;;;;;;5013475;28;19960;-69
2022/09/05 08:53:17;;;;;;;;;;;28.80;99.90;;;;;;5015998;28;19905;-69
2022/09/05 08:55:51;;;;;;;;;;;28.30;99.90;;;;;;5017662;28;19959;-69
2022/09/05 08:58:19;;;;;;;;;;;28.00;99.90;;;;;;5017414;28;19906;-68
2022/09/05 09:00:56;;;;;;;;;;;27.80;99.90;;;;;;5017256;28;19912;-69
2022/09/05 09:03:23;;;;;;;;;;;27.80;99.90;;;;;;5017232;28;20355;-70
2022/09/05 09:06:09;;;;;;;;;;;27.80;99.90;;;;;;5017103;28;19969;-67
2022/09/05 09:08:44;;;;;;;;;;;27.70;99.90;;;;;;5017271;28;20013;-68
2022/09/05 09:11:17;;;;;;;;;;;27.60;99.90;;;;;;5017338;28;20293;-68
2022/09/05 09:13:51;;;;;;;;;;;27.60;99.90;;;;;;5016690;28;19972;-68
2022/09/05 09:16:17;;;;;;;;;;;27.50;99.90;;;;;;5015645;28;19924;-69
2022/09/05 09:18:44;;;;;;;;;;;27.50;99.90;;;;;;5016425;28;19912;-69
2022/09/05 09:21:19;;;;;;;;;;;27.50;99.90;;;;;;5016231;28;19912;-69
2022/09/05 09:23:48;;;;;;;;;;;27.50;99.90;;;;;;5016234;28;19916;-69
2022/09/05 09:26:17;;;;;;;;;;;27.40;99.90;;;;;;5013951;28;19905;-68
2022/09/05 09:28:44;;;;;;;;;;;27.50;99.90;;;;;;5016115;28;19905;-68
2022/09/05 09:31:14;;;;;;;;;;;27.50;99.90;;;;;;5016549;28;19905;-67
2022/09/05 09:33:52;;;;;;;;;;;27.50;99.90;;;;;;5016154;28;20032;-67
2022/09/05 09:36:27;;;;;;;;;;;27.60;99.90;;;;;;5014262;28;19914;-68
2022/09/05 09:38:55;;;;;;;;;;;27.60;99.90;;;;;;5013602;28;20381;-67
2022/09/05 09:41:28;;;;;;;;;;;27.50;99.90;;;;;;5015819;28;20366;-67
2022/09/05 09:43:56;;;;;;;;;;;27.50;99.90;;;;;;5013559;28;20055;-66
2022/09/05 09:46:43;;;;;;;;;;;27.40;99.90;;;;;;5015965;28;19906;-67
2022/09/05 09:49:20;;;;;;;;;;;27.30;99.90;;;;;;5015579;28;20402;-67
2022/09/05 09:51:47;;;;;;;;;;;27.20;99.90;;;;;;5015672;28;19909;-67
2022/09/05 09:54:33;;;;;;;;;;;27.20;99.90;;;;;;5012930;28;19909;-67
2022/09/05 09:57:00;;;;;;;;;;;27.20;99.90;;;;;;5013769;28;19909;-67
2022/09/05 09:59:28;;;;;;;;;;;27.30;99.90;;;;;;5015510;28;19909;-70
2022/09/05 10:01:55;;;;;;;;;;;27.20;99.90;;;;;;5013009;28;19906;-69
2022/09/05 10:04:29;;;;;;;;;;;27.20;99.90;;;;;;5014731;28;19913;-70
2022/09/05 10:06:58;;;;;;;;;;;27.20;99.90;;;;;;5013216;28;19917;-70
2022/09/05 10:09:41;;;;;;;;;;;27.30;99.90;;;;;;5015270;28;19905;-64
2022/09/05 10:12:27;;;;;;;;;;;27.30;99.90;;;;;;5014687;28;19913;-66
2022/09/05 10:15:14;;;;;;;;;;;27.30;99.90;;;;;;5014136;28;20012;-73
2022/09/05 10:17:41;;;;;;;;;;;27.30;99.90;;;;;;5011500;28;20433;-69
2022/09/05 10:20:09;;;;;;;;;;;27.40;99.90;;;;;;5014546;28;19905;-70
2022/09/05 10:22:44;;;;;;;;;;;27.50;99.90;;;;;;5014725;28;19909;-70
2022/09/05 10:25:30;;;;;;;;;;;27.30;99.90;;;;;;5014399;28;19909;-73
2022/09/05 10:28:03;;;;;;;;;;;27.20;99.90;;;;;;5014171;28;19906;-70
2022/09/05 10:30:41;;;;;;;;;;;27.30;99.90;;;;;;5014224;28;19909;-70
2022/09/05 10:33:12;;;;;;;;;;;27.20;99.90;;;;;;5012939;28;20079;-70
2022/09/05 10:35:41;;;;;;;;;;;27.20;99.90;;;;;;5014278;28;19955;-70
2022/09/05 10:38:10;;;;;;;;;;;27.30;99.90;;;;;;5014290;28;19912;-71
2022/09/05 10:40:37;;;;;;;;;;;27.20;99.90;;;;;;5014198;28;19906;-70
2022/09/05 10:43:11;;;;;;;;;;;27.20;99.90;;;;;;5013986;28;19905;-69
2022/09/05 10:45:59;;;;;;;;;;;27.30;99.90;;;;;;5013844;28;19912;-68
2022/09/05 10:48:32;;;;;;;;;;;27.50;99.90;;;;;;4927356;29;19907;-68
2022/09/05 10:51:00;;;;;;;;;;;27.60;99.90;;;;;;4923649;29;19908;-69
2022/09/05 10:53:34;;;;;;;;;;;27.60;99.90;;;;;;4924676;29;20304;-68
2022/09/05 10:56:04;;;;;;;;;;;27.60;99.90;;;;;;4925275;29;19945;-69
2022/09/05 10:58:31;;;;;;;;;;;27.60;99.90;;;;;;4925146;29;20410;-69
2022/09/05 11:01:17;;;;;;;;;;;27.50;99.90;;;;;;4923425;29;20006;-69
2022/09/05 11:04:03;;;;;;;;;;;27.60;99.90;;;;;;4928242;29;19915;-65
2022/09/05 11:06:38;;;;;;;;;;;27.80;99.90;;;;;;4868131;29;20400;-65
2022/09/05 11:09:08;;;;;;;;;;;27.80;99.90;;;;;;4867753;29;19919;-66
2022/09/05 11:11:43;;;;;;;;;;;27.70;99.90;;;;;;4872002;29;19920;-66
2022/09/05 11:14:29;;;;;;;;;;;27.80;99.90;;;;;;4870936;29;19924;-66
2022/09/05 11:17:04;;;;;;;;;;;27.60;99.90;;;;;;4780073;29;19917;-65
2022/09/05 11:19:39;;;;;;;;;;;27.30;99.90;;;;;;4817445;29;19947;-72
2022/09/05 11:22:07;;;;;;;;;;;27.30;99.90;;;;;;4832336;29;19912;-71
2022/09/05 11:24:33;;;;;;;;;;;27.30;99.90;;;;;;4834275;29;19951;-71
2022/09/05 11:27:08;;;;;;;;;;;27.30;99.90;;;;;;4832348;29;19912;-67
2022/09/05 11:29:38;;;;;;;;;;;27.30;99.90;;;;;;4831461;29;20015;-65
2022/09/05 11:32:05;;;;;;;;;;;27.30;99.90;;;;;;4834218;29;19912;-67
2022/09/05 11:34:40;;;;;;;;;;;27.30;99.90;;;;;;4831907;29;19924;-67
2022/09/05 11:37:14;;;;;;;;;;;27.30;99.90;;;;;;4835462;29;19943;-69
2022/09/05 11:39:41;;;;;;;;;;;27.20;99.90;;;;;;4833195;29;20003;-68
2022/09/05 11:42:08;;;;;;;;;;;27.20;99.90;;;;;;4831455;29;19909;-70
2022/09/05 11:44:34;;;;;;;;;;;27.30;99.90;;;;;;4897990;29;20038;-71
2022/09/05 11:47:20;;;;;;;;;;;27.40;99.90;;;;;;4906095;29;19907;-69
2022/09/05 11:49:46;;;;;;;;;;;27.30;99.90;;;;;;4849187;29;19908;-69
2022/09/05 11:52:21;;;;;;;;;;;27.30;99.90;;;;;;4850187;29;19909;-70
2022/09/05 11:54:47;;;;;;;;;;;27.30;99.90;;;;;;4905716;29;19918;-70
2022/09/05 11:57:15;;;;;;;;;;;27.30;99.90;;;;;;4920938;29;20455;-68
2022/09/05 11:59:58;;;;;;;;;;;27.30;99.90;;;;;;4914605;29;19914;-70
2022/09/05 12:02:25;;;;;;;;;;;27.30;99.90;;;;;;4921056;29;20372;-70
2022/09/05 12:05:03;;;;;;;;;;;27.30;99.90;;;;;;4919646;29;19911;-69
2022/09/05 12:07:38;;;;;;;;;;;27.40;99.90;;;;;;4924392;28;19918;-71
2022/09/05 12:10:25;;;;;;;;;;;27.30;99.90;;;;;;4920771;29;19906;-70
2022/09/05 12:13:00;;;;;;;;;;;27.20;99.90;;;;;;4924134;29;20025;-69
2022/09/05 12:15:27;;;;;;;;;;;27.30;99.90;;;;;;4919752;29;19983;-68
2022/09/05 12:18:13;;;;;;;;;;;27.20;99.90;;;;;;4929705;29;19954;-68
2022/09/05 12:20:44;;;;;;;;;;;27.30;99.90;;;;;;4915644;29;20036;-65
2022/09/05 12:23:11;;;;;;;;;;;27.20;99.90;;;;;;4924070;29;19906;-66
2022/09/05 12:25:39;;;;;;;;;;;27.10;99.90;;;;;;4925473;29;20001;-64
2022/09/05 12:28:10;;;;;;;;;;;27.10;99.90;;;;;;5007675;28;19906;-64
2022/09/05 12:30:38;;;;;;;;;;;27.20;99.90;;;;;;5006798;28;19922;-64
2022/09/05 12:33:16;;;;;;;;;;;27.10;99.90;;;;;;5009854;28;20004;-63
2022/09/05 12:35:54;;;;;;;;;;;27.20;99.90;;;;;;5017264;28;19910;-65
2022/09/05 12:38:26;;;;;;;;;;;27.20;99.90;;;;;;5017190;28;19912;-65
2022/09/05 12:40:58;;;;;;;;;;;27.30;99.90;;;;;;5016554;28;19984;-66
2022/09/05 12:43:26;;;;;;;;;;;27.20;99.90;;;;;;5008502;28;19913;-65
2022/09/05 12:45:55;;;;;;;;;;;27.20;99.90;;;;;;5005527;28;19905;-65
2022/09/05 12:48:21;;;;;;;;;;;27.10;99.90;;;;;;5017491;28;19968;-65
2022/09/05 12:50:56;;;;;;;;;;;27.10;99.90;;;;;;5017457;28;19976;-65
2022/09/05 12:53:23;;;;;;;;;;;27.30;99.90;;;;;;5017616;28;20016;-65
2022/09/05 12:55:52;;;;;;;;;;;27.40;99.90;;;;;;5017493;28;19909;-66
2022/09/05 12:58:21;;;;;;;;;;;27.50;99.90;;;;;;5017665;28;19988;-65
2022/09/05 13:00:48;;;;;;;;;;;27.50;99.90;;;;;;5017546;28;19959;-64
2022/09/05 13:03:17;;;;;;;;;;;27.50;99.90;;;;;;5017422;28;19905;-64
2022/09/05 13:05:46;;;;;;;;;;;27.40;99.90;;;;;;5017215;28;20420;-65
2022/09/05 13:08:19;;;;;;;;;;;27.20;99.90;;;;;;5017325;28;19906;-65
2022/09/05 13:10:56;;;;;;;;;;;27.30;99.90;;;;;;5017273;28;20279;-65
2022/09/05 13:13:22;;;;;;;;;;;27.30;99.90;;;;;;5015302;28;19921;-65
2022/09/05 13:15:51;;;;;;;;;;;27.20;99.90;;;;;;5015534;28;19960;-68
2022/09/05 13:18:19;;;;;;;;;;;27.00;99.90;;;;;;5006666;28;19937;-67
2022/09/05 13:20:57;;;;;;;;;;;26.90;99.90;;;;;;4998624;28;19906;-68
2022/09/05 13:23:43;;;;;;;;;;;26.90;99.90;;;;;;4997401;28;19906;-66
2022/09/05 13:26:25;;;;;;;;;;;27.00;99.90;;;;;;4997087;28;19905;-67
2022/09/05 13:28:54;;;;;;;;;;;27.00;99.90;;;;;;4997191;28;19909;-67
2022/09/05 13:31:40;;;;;;;;;;;27.00;99.90;;;;;;4997158;28;19906;-67
2022/09/05 13:34:12;;;;;;;;;;;27.10;99.90;;;;;;4997029;28;19913;-65
2022/09/05 13:36:43;;;;;;;;;;;27.10;99.90;;;;;;5008430;28;19909;-63
2022/09/05 13:39:11;;;;;;;;;;;27.10;99.90;;;;;;4996092;28;20418;-64
2022/09/05 13:41:49;;;;;;;;;;;27.20;99.90;;;;;;5006489;28;20313;-63
2022/09/05 13:44:20;;;;;;;;;;;27.20;99.90;;;;;;5014101;28;19905;-63
2022/09/05 13:47:08;;;;;;;;;;;27.20;99.90;;;;;;5015573;28;19988;-64
2022/09/05 13:49:42;;;;;;;;;;;27.20;99.90;;;;;;5013636;28;20377;-64
2022/09/05 13:52:26;;;;;;;;;;;27.20;99.90;;;;;;5008704;28;20011;-64
2022/09/05 13:55:12;;;;;;;;;;;27.20;99.90;;;;;;5013221;28;20281;-65
2022/09/05 13:57:38;;;;;;;;;;;27.00;99.90;;;;;;4929295;29;19910;-65
2022/09/05 14:00:07;;;;;;;;;;;27.10;99.90;;;;;;4925975;29;19914;-65
2022/09/05 14:02:33;;;;;;;;;;;27.20;99.90;;;;;;4926774;29;19910;-65
2022/09/05 14:04:59;;;;;;;;;;;27.20;99.90;;;;;;4927488;29;19911;-65
2022/09/05 14:07:36;;;;;;;;;;;27.30;99.90;;;;;;4928432;29;20360;-65
2022/09/05 14:10:09;;;;;;;;;;;27.30;99.90;;;;;;4927642;29;19907;-65
2022/09/05 14:12:41;;;;;;;;;;;27.30;99.90;;;;;;4929433;29;19914;-65
2022/09/05 14:15:17;;;;;;;;;;;27.30;99.90;;;;;;4924979;29;20055;-65
2022/09/05 14:18:03;;;;;;;;;;;27.30;99.90;;;;;;4924996;29;20010;-65
2022/09/05 14:23:21;;;;;;;;;;;27.10;99.90;;;;;;4925202;29;20040;-65
2022/09/05 14:25:52;;;;;;;;;;;27.00;99.90;;;;;;4924405;29;19914;-68
2022/09/05 14:28:24;;;;;;;;;;;27.00;99.90;;;;;;4954600;28;19905;-65
2022/09/05 14:30:53;;;;;;;;;;;26.90;99.90;;;;;;4995605;28;19912;-65
2022/09/05 14:33:19;;;;;;;;;;;26.80;99.90;;;;;;4995722;28;19963;-65
2022/09/05 14:35:46;;;;;;;;;;;27.00;99.90;;;;;;4995954;28;19913;-65
2022/09/05 14:38:18;;;;;;;;;;;27.00;99.90;;;;;;5004949;28;19941;-65
2022/09/05 14:41:04;;;;;;;;;;;27.10;99.90;;;;;;5015294;28;19902;-65
2022/09/05 14:43:41;;;;;;;;;;;27.00;99.90;;;;;;5005673;28;20267;-65
2022/09/05 14:46:07;;;;;;;;;;;27.00;99.90;;;;;;5004126;28;19956;-66
2022/09/05 14:48:53;;;;;;;;;;;27.00;99.90;;;;;;5000106;28;19914;-65
2022/09/05 14:51:28;;;;;;;;;;;26.90;99.90;;;;;;4906076;29;19918;-65
2022/09/05 14:54:00;;;;;;;;;;;26.90;99.90;;;;;;4914385;29;19963;-64
2022/09/05 14:56:29;;;;;;;;;;;27.00;99.90;;;;;;4916265;29;19999;-65